sensor_id;sensor_type;location;lat;lon;timestamp;pressure;altitude;pressure_sealevel;temperature;humidity
19286;BME280;9776;50.798;6.430;2023-04-08T00:01:30;100789.84;;;10.29;70.28
19286;BME280;9776;50.798;6.430;2023-04-08T00:03:57;100796.25;;;10.26;70.25
19286;BME280;9776;50.798;6.430;2023-04-08T00:06:24;100793.84;;;10.13;70.69
19286;BME280;9776;50.798;6.430;2023-04-08T00:08:52;100793.38;;;10.08;70.83
19286;BME280;9776;50.798;6.430;2023-04-08T00:11:19;100795.28;;;9.97;71.17
19286;BME280;9776;50.798;6.430;2023-04-08T00:13:46;100802.09;;;9.90;71.17
19286;BME280;9776;50.798;6.430;2023-04-08T00:16:13;100799.72;;;9.87;71.39
19286;BME280;9776;50.798;6.430;2023-04-08T00:18:40;100796.34;;;9.85;71.44
19286;BME280;9776;50.798;6.430;2023-04-08T00:21:07;100796.34;;;9.85;71.33
19286;BME280;9776;50.798;6.430;2023-04-08T00:23:33;100805.00;;;9.87;71.28
19286;BME280;9776;50.798;6.430;2023-04-08T00:26:35;100803.03;;;9.89;71.22
19286;BME280;9776;50.798;6.430;2023-04-08T00:29:02;100803.22;;;9.97;71.17
19286;BME280;9776;50.798;6.430;2023-04-08T00:31:28;100801.13;;;10.00;70.84
19286;BME280;9776;50.798;6.430;2023-04-08T00:33:55;100802.94;;;10.00;70.94
19286;BME280;9776;50.798;6.430;2023-04-08T00:36:22;100808.06;;;9.92;71.25
19286;BME280;9776;50.798;6.430;2023-04-08T00:38:48;100807.16;;;9.82;71.51
19286;BME280;9776;50.798;6.430;2023-04-08T00:41:15;100802.41;;;9.76;71.70
19286;BME280;9776;50.798;6.430;2023-04-08T00:43:43;100810.59;;;9.73;71.68
19286;BME280;9776;50.798;6.430;2023-04-08T00:46:10;100810.16;;;9.67;71.79
19286;BME280;9776;50.798;6.430;2023-04-08T00:48:36;100809.31;;;9.67;71.87
19286;BME280;9776;50.798;6.430;2023-04-08T00:51:03;100810.56;;;9.63;71.85
19286;BME280;9776;50.798;6.430;2023-04-08T00:53:30;100811.53;;;9.62;72.12
19286;BME280;9776;50.798;6.430;2023-04-08T00:55:57;100815.13;;;9.61;72.01
19286;BME280;9776;50.798;6.430;2023-04-08T00:58:26;100813.06;;;9.64;72.12
19286;BME280;9776;50.798;6.430;2023-04-08T01:00:59;100820.84;;;9.66;71.92
19286;BME280;9776;50.798;6.430;2023-04-08T01:03:34;100815.06;;;9.72;71.82
19286;BME280;9776;50.798;6.430;2023-04-08T01:06:10;100824.34;;;9.76;71.55
19286;BME280;9776;50.798;6.430;2023-04-08T01:08:41;100823.81;;;9.82;71.74
19286;BME280;9776;50.798;6.430;2023-04-08T01:11:10;100827.47;;;9.91;71.37
19286;BME280;9776;50.798;6.430;2023-04-08T01:13:39;100826.09;;;9.96;71.31
19286;BME280;9776;50.798;6.430;2023-04-08T01:16:11;100823.50;;;10.06;71.04
19286;BME280;9776;50.798;6.430;2023-04-08T01:18:40;100823.34;;;10.07;71.11
19286;BME280;9776;50.798;6.430;2023-04-08T01:21:09;100811.72;;;10.10;71.01
19286;BME280;9776;50.798;6.430;2023-04-08T01:23:40;100818.41;;;10.14;70.83
19286;BME280;9776;50.798;6.430;2023-04-08T01:26:11;100811.19;;;10.16;70.72
19286;BME280;9776;50.798;6.430;2023-04-08T01:28:39;100820.66;;;10.18;70.74
19286;BME280;9776;50.798;6.430;2023-04-08T01:31:08;100817.75;;;10.21;70.89
19286;BME280;9776;50.798;6.430;2023-04-08T01:33:36;100813.44;;;10.20;70.67
19286;BME280;9776;50.798;6.430;2023-04-08T01:36:02;100813.19;;;10.23;70.52
19286;BME280;9776;50.798;6.430;2023-04-08T01:38:30;100821.94;;;10.24;70.69
19286;BME280;9776;50.798;6.430;2023-04-08T01:40:58;100825.69;;;10.21;70.58
19286;BME280;9776;50.798;6.430;2023-04-08T01:43:27;100820.25;;;10.23;70.54
19286;BME280;9776;50.798;6.430;2023-04-08T01:45:57;100829.69;;;10.25;70.38
19286;BME280;9776;50.798;6.430;2023-04-08T01:48:24;100829.56;;;10.27;70.55
19286;BME280;9776;50.798;6.430;2023-04-08T01:50:53;100833.03;;;10.27;70.40
19286;BME280;9776;50.798;6.430;2023-04-08T01:53:21;100831.38;;;10.27;70.55
19286;BME280;9776;50.798;6.430;2023-04-08T01:55:51;100820.56;;;10.30;70.24
19286;BME280;9776;50.798;6.430;2023-04-08T01:58:21;100829.16;;;10.32;70.29
19286;BME280;9776;50.798;6.430;2023-04-08T02:00:50;100831.53;;;10.35;70.20
19286;BME280;9776;50.798;6.430;2023-04-08T02:03:21;100832.22;;;10.37;70.04
19286;BME280;9776;50.798;6.430;2023-04-08T02:05:49;100830.84;;;10.33;70.14
19286;BME280;9776;50.798;6.430;2023-04-08T02:08:16;100826.53;;;10.32;70.14
19286;BME280;9776;50.798;6.430;2023-04-08T02:10:42;100830.00;;;10.32;70.03
19286;BME280;9776;50.798;6.430;2023-04-08T02:13:09;100840.28;;;10.35;70.01
19286;BME280;9776;50.798;6.430;2023-04-08T02:15:39;100835.69;;;10.37;69.96
19286;BME280;9776;50.798;6.430;2023-04-08T02:18:12;100834.59;;;10.40;69.78
19286;BME280;9776;50.798;6.430;2023-04-08T02:20:43;100836.38;;;10.39;69.81
19286;BME280;9776;50.798;6.430;2023-04-08T02:23:15;100839.44;;;10.35;70.03
19286;BME280;9776;50.798;6.430;2023-04-08T02:25:44;100846.41;;;10.36;70.08
19286;BME280;9776;50.798;6.430;2023-04-08T02:28:13;100840.97;;;10.37;69.76
19286;BME280;9776;50.798;6.430;2023-04-08T02:30:42;100838.47;;;10.36;69.86
19286;BME280;9776;50.798;6.430;2023-04-08T02:33:10;100841.81;;;10.38;69.72
19286;BME280;9776;50.798;6.430;2023-04-08T02:35:39;100841.66;;;10.39;69.79
19286;BME280;9776;50.798;6.430;2023-04-08T02:38:07;100834.84;;;10.37;70.00
19286;BME280;9776;50.798;6.430;2023-04-08T02:40:34;100841.41;;;10.33;70.04
19286;BME280;9776;50.798;6.430;2023-04-08T02:43:01;100845.69;;;10.34;70.08
19286;BME280;9776;50.798;6.430;2023-04-08T02:45:30;100843.19;;;10.32;70.09
19286;BME280;9776;50.798;6.430;2023-04-08T02:47:58;100843.19;;;10.32;69.93
19286;BME280;9776;50.798;6.430;2023-04-08T02:50:27;100848.31;;;10.34;69.85
19286;BME280;9776;50.798;6.430;2023-04-08T02:52:54;100843.88;;;10.34;69.88
19286;BME280;9776;50.798;6.430;2023-04-08T02:55:21;100841.81;;;10.38;69.88
19286;BME280;9776;50.798;6.430;2023-04-08T02:57:48;100838.34;;;10.37;69.80
19286;BME280;9776;50.798;6.430;2023-04-08T03:00:15;100837.22;;;10.40;69.86
19286;BME280;9776;50.798;6.430;2023-04-08T03:02:42;100842.50;;;10.40;69.67
19286;BME280;9776;50.798;6.430;2023-04-08T03:05:09;100847.22;;;10.36;70.02
19286;BME280;9776;50.798;6.430;2023-04-08T03:07:38;100850.69;;;10.37;69.74
19286;BME280;9776;50.798;6.430;2023-04-08T03:10:06;100845.28;;;10.38;69.66
19286;BME280;9776;50.798;6.430;2023-04-08T03:12:33;100848.88;;;10.37;69.85
19286;BME280;9776;50.798;6.430;2023-04-08T03:15:01;100838.47;;;10.36;69.77
19286;BME280;9776;50.798;6.430;2023-04-08T03:17:28;100835.97;;;10.34;69.94
19286;BME280;9776;50.798;6.430;2023-04-08T03:19:58;100836.97;;;10.33;70.05
19286;BME280;9776;50.798;6.430;2023-04-08T03:22:24;100839.88;;;10.30;70.13
19286;BME280;9776;50.798;6.430;2023-04-08T03:24:52;100835.53;;;10.29;70.36
19286;BME280;9776;50.798;6.430;2023-04-08T03:27:19;100837.22;;;10.30;70.34
19286;BME280;9776;50.798;6.430;2023-04-08T03:29:46;100832.75;;;10.31;70.25
19286;BME280;9776;50.798;6.430;2023-04-08T03:32:12;100842.63;;;10.29;70.29
19286;BME280;9776;50.798;6.430;2023-04-08T03:34:39;100838.31;;;10.27;70.50
19286;BME280;9776;50.798;6.430;2023-04-08T03:37:06;100841.50;;;10.21;70.65
19286;BME280;9776;50.798;6.430;2023-04-08T03:39:33;100840.94;;;10.18;70.68
19286;BME280;9776;50.798;6.430;2023-04-08T03:42:01;100847.75;;;10.20;70.67
19286;BME280;9776;50.798;6.430;2023-04-08T03:44:27;100839.13;;;10.18;70.77
19286;BME280;9776;50.798;6.430;2023-04-08T03:46:54;100843.94;;;10.13;70.96
19286;BME280;9776;50.798;6.430;2023-04-08T03:49:21;100855.00;;;10.07;71.16
19286;BME280;9776;50.798;6.430;2023-04-08T03:51:47;100848.09;;;10.06;71.07
19286;BME280;9776;50.798;6.430;2023-04-08T03:54:14;100844.34;;;10.09;71.15
19286;BME280;9776;50.798;6.430;2023-04-08T03:56:41;100840.59;;;10.11;71.04
19286;BME280;9776;50.798;6.430;2023-04-08T03:59:09;100850.84;;;10.05;71.21
19286;BME280;9776;50.798;6.430;2023-04-08T04:01:35;100849.19;;;10.04;71.29
19286;BME280;9776;50.798;6.430;2023-04-08T04:04:02;100852.25;;;10.09;71.09
19286;BME280;9776;50.798;6.430;2023-04-08T04:06:28;100851.09;;;10.02;71.33
19286;BME280;9776;50.798;6.430;2023-04-08T04:08:55;100848.88;;;9.97;71.57
19286;BME280;9776;50.798;6.430;2023-04-08T04:11:22;100851.91;;;9.93;71.72
19286;BME280;9776;50.798;6.430;2023-04-08T04:13:48;100859.00;;;9.92;71.82
19286;BME280;9776;50.798;6.430;2023-04-08T04:16:16;100856.91;;;9.96;71.84
19286;BME280;9776;50.798;6.430;2023-04-08T04:18:43;100854.41;;;9.94;71.70
19286;BME280;9776;50.798;6.430;2023-04-08T04:21:10;100862.72;;;9.90;71.83
19286;BME280;9776;50.798;6.430;2023-04-08T04:23:37;100856.03;;;9.86;72.12
19286;BME280;9776;50.798;6.430;2023-04-08T04:26:07;100854.53;;;9.93;71.95
19286;BME280;9776;50.798;6.430;2023-04-08T04:28:34;100862.75;;;9.99;71.82
19286;BME280;9776;50.798;6.430;2023-04-08T04:31:01;100855.41;;;10.03;71.67
19286;BME280;9776;50.798;6.430;2023-04-08T04:33:29;100853.63;;;10.03;71.77
19286;BME280;9776;50.798;6.430;2023-04-08T04:35:56;100855.28;;;10.04;71.75
19286;BME280;9776;50.798;6.430;2023-04-08T04:38:23;100856.84;;;10.07;71.60
19286;BME280;9776;50.798;6.430;2023-04-08T04:40:49;100863.66;;;10.09;71.66
19286;BME280;9776;50.798;6.430;2023-04-08T04:43:16;100866.13;;;10.11;71.50
19286;BME280;9776;50.798;6.430;2023-04-08T04:45:43;100873.94;;;10.12;71.68
19286;BME280;9776;50.798;6.430;2023-04-08T04:48:10;100869.59;;;10.11;71.60
19286;BME280;9776;50.798;6.430;2023-04-08T04:50:38;100874.50;;;10.16;71.49
19286;BME280;9776;50.798;6.430;2023-04-08T04:53:04;100889.38;;;10.17;71.45
19286;BME280;9776;50.798;6.430;2023-04-08T04:55:31;100885.91;;;10.16;71.42
19286;BME280;9776;50.798;6.430;2023-04-08T04:57:58;100890.91;;;10.19;71.36
19286;BME280;9776;50.798;6.430;2023-04-08T05:00:25;100894.28;;;10.21;71.40
19286;BME280;9776;50.798;6.430;2023-04-08T05:02:52;100897.28;;;10.17;71.63
19286;BME280;9776;50.798;6.430;2023-04-08T05:05:18;100896.59;;;10.15;71.65
19286;BME280;9776;50.798;6.430;2023-04-08T05:07:46;100898.81;;;10.19;71.69
19286;BME280;9776;50.798;6.430;2023-04-08T05:10:13;100895.06;;;10.22;71.60
19286;BME280;9776;50.798;6.430;2023-04-08T05:12:40;100899.66;;;10.20;71.40
19286;BME280;9776;50.798;6.430;2023-04-08T05:15:07;100907.72;;;10.18;71.51
19286;BME280;9776;50.798;6.430;2023-04-08T05:17:33;100904.25;;;10.18;71.70
19286;BME280;9776;50.798;6.430;2023-04-08T05:20:00;100909.25;;;10.21;71.70
19286;BME280;9776;50.798;6.430;2023-04-08T05:22:27;100908.41;;;10.20;71.30
19286;BME280;9776;50.798;6.430;2023-04-08T05:24:55;100906.16;;;10.16;71.66
19286;BME280;9776;50.798;6.430;2023-04-08T05:27:22;100908.34;;;10.11;71.85
19286;BME280;9776;50.798;6.430;2023-04-08T05:29:49;100907.06;;;10.05;71.87
19286;BME280;9776;50.798;6.430;2023-04-08T05:32:15;100904.56;;;10.04;72.07
19286;BME280;9776;50.798;6.430;2023-04-08T05:34:42;100913.03;;;10.07;71.89
19286;BME280;9776;50.798;6.430;2023-04-08T05:37:09;100905.59;;;10.12;71.90
19286;BME280;9776;50.798;6.430;2023-04-08T05:39:36;100913.81;;;10.19;71.68
19286;BME280;9776;50.798;6.430;2023-04-08T05:42:04;100913.53;;;10.22;71.59
19286;BME280;9776;50.798;6.430;2023-04-08T05:44:31;100909.63;;;10.16;71.79
19286;BME280;9776;50.798;6.430;2023-04-08T05:46:58;100912.53;;;10.13;72.08
19286;BME280;9776;50.798;6.430;2023-04-08T05:49:24;100917.75;;;10.04;72.17
19286;BME280;9776;50.798;6.430;2023-04-08T05:51:51;100921.75;;;9.98;72.44
19286;BME280;9776;50.798;6.430;2023-04-08T05:54:18;100921.28;;;9.93;72.64
19286;BME280;9776;50.798;6.430;2023-04-08T05:56:44;100924.44;;;9.87;72.76
19286;BME280;9776;50.798;6.430;2023-04-08T05:59:14;100925.69;;;9.83;72.90
19286;BME280;9776;50.798;6.430;2023-04-08T06:01:41;100926.53;;;9.84;72.99
19286;BME280;9776;50.798;6.430;2023-04-08T06:04:07;100933.97;;;9.79;73.01
19286;BME280;9776;50.798;6.430;2023-04-08T06:06:36;100929.53;;;9.79;73.15
19286;BME280;9776;50.798;6.430;2023-04-08T06:09:03;100930.38;;;9.80;73.32
19286;BME280;9776;50.798;6.430;2023-04-08T06:11:30;100932.91;;;9.81;73.19
19286;BME280;9776;50.798;6.430;2023-04-08T06:13:56;100930.28;;;9.81;73.20
19286;BME280;9776;50.798;6.430;2023-04-08T06:16:24;100938.19;;;9.81;73.39
19286;BME280;9776;50.798;6.430;2023-04-08T06:18:51;100937.09;;;9.84;73.31
19286;BME280;9776;50.798;6.430;2023-04-08T06:21:18;100944.00;;;9.85;73.43
19286;BME280;9776;50.798;6.430;2023-04-08T06:23:45;100942.66;;;9.90;73.38
19286;BME280;9776;50.798;6.430;2023-04-08T06:26:12;100954.88;;;9.91;73.46
19286;BME280;9776;50.798;6.430;2023-04-08T06:28:39;100958.72;;;9.87;73.52
19286;BME280;9776;50.798;6.430;2023-04-08T06:31:05;100961.19;;;9.79;73.77
19286;BME280;9776;50.798;6.430;2023-04-08T06:33:33;100962.59;;;9.83;73.79
19286;BME280;9776;50.798;6.430;2023-04-08T06:36:01;100956.75;;;9.80;73.86
19286;BME280;9776;50.798;6.430;2023-04-08T06:38:28;100962.59;;;9.83;73.79
19286;BME280;9776;50.798;6.430;2023-04-08T06:40:55;100969.41;;;9.86;73.91
19286;BME280;9776;50.798;6.430;2023-04-08T06:43:21;100970.69;;;9.91;73.64
19286;BME280;9776;50.798;6.430;2023-04-08T06:45:48;100969.75;;;9.92;73.67
19286;BME280;9776;50.798;6.430;2023-04-08T06:48:16;100961.44;;;9.97;73.80
19286;BME280;9776;50.798;6.430;2023-04-08T06:50:44;100966.34;;;10.01;73.59
19286;BME280;9776;50.798;6.430;2023-04-08T06:53:11;100971.63;;;10.11;73.42
19286;BME280;9776;50.798;6.430;2023-04-08T06:55:38;100969.72;;;10.13;73.33
19286;BME280;9776;50.798;6.430;2023-04-08T06:58:04;100972.56;;;10.21;73.45
19286;BME280;9776;50.798;6.430;2023-04-08T07:00:31;100974.09;;;10.23;73.47
19286;BME280;9776;50.798;6.430;2023-04-08T07:02:59;100978.53;;;10.23;73.46
19286;BME280;9776;50.798;6.430;2023-04-08T07:05:26;100982.72;;;10.25;73.41
19286;BME280;9776;50.798;6.430;2023-04-08T07:07:54;100985.09;;;10.29;73.43
19286;BME280;9776;50.798;6.430;2023-04-08T07:10:21;100984.66;;;10.23;73.66
19286;BME280;9776;50.798;6.430;2023-04-08T07:12:47;100997.28;;;10.20;73.51
19286;BME280;9776;50.798;6.430;2023-04-08T07:15:14;100991.47;;;10.26;73.50
19286;BME280;9776;50.798;6.430;2023-04-08T07:17:40;100990.53;;;10.37;73.21
19286;BME280;9776;50.798;6.430;2023-04-08T07:20:08;100989.06;;;10.44;72.97
19286;BME280;9776;50.798;6.430;2023-04-08T07:22:35;100999.44;;;10.36;73.35
19286;BME280;9776;50.798;6.430;2023-04-08T07:25:05;101002.16;;;10.24;73.34
19286;BME280;9776;50.798;6.430;2023-04-08T07:27:32;101009.09;;;10.25;73.56
19286;BME280;9776;50.798;6.430;2023-04-08T07:29:59;101007.63;;;10.33;73.43
19286;BME280;9776;50.798;6.430;2023-04-08T07:32:26;101009.28;;;10.34;73.35
19286;BME280;9776;50.798;6.430;2023-04-08T07:34:53;101015.34;;;10.24;73.36
19286;BME280;9776;50.798;6.430;2023-04-08T07:37:19;101018.13;;;10.23;73.58
19286;BME280;9776;50.798;6.430;2023-04-08T07:39:46;101014.19;;;10.17;73.78
19286;BME280;9776;50.798;6.430;2023-04-08T07:42:14;101017.53;;;10.19;73.59
19286;BME280;9776;50.798;6.430;2023-04-08T07:44:41;101028.81;;;10.21;73.60
19286;BME280;9776;50.798;6.430;2023-04-08T07:47:08;101020.06;;;10.21;73.63
19286;BME280;9776;50.798;6.430;2023-04-08T07:49:36;101027.06;;;10.32;73.54
19286;BME280;9776;50.798;6.430;2023-04-08T07:52:05;101028.22;;;10.39;73.27
19286;BME280;9776;50.798;6.430;2023-04-08T07:54:32;101029.50;;;10.54;72.88
19286;BME280;9776;50.798;6.430;2023-04-08T07:56:59;101025.28;;;10.72;72.39
19286;BME280;9776;50.798;6.430;2023-04-08T07:59:28;101021.69;;;10.73;72.30
19286;BME280;9776;50.798;6.430;2023-04-08T08:01:55;101031.53;;;10.71;72.57
19286;BME280;9776;50.798;6.430;2023-04-08T08:04:22;101036.13;;;10.69;72.60
19286;BME280;9776;50.798;6.430;2023-04-08T08:06:50;101027.94;;;10.72;72.64
19286;BME280;9776;50.798;6.430;2023-04-08T08:09:16;101028.47;;;10.66;72.67
19286;BME280;9776;50.798;6.430;2023-04-08T08:11:43;101040.03;;;10.74;72.48
19286;BME280;9776;50.798;6.430;2023-04-08T08:14:10;101039.13;;;10.95;72.11
19286;BME280;9776;50.798;6.430;2023-04-08T08:16:39;101043.31;;;10.97;71.87
19286;BME280;9776;50.798;6.430;2023-04-08T08:19:06;101040.13;;;11.03;71.80
19286;BME280;9776;50.798;6.430;2023-04-08T08:21:35;101044.59;;;11.12;71.80
19286;BME280;9776;50.798;6.430;2023-04-08T08:24:02;101043.38;;;11.16;71.50
19286;BME280;9776;50.798;6.430;2023-04-08T08:26:28;101051.84;;;11.20;71.48
19286;BME280;9776;50.798;6.430;2023-04-08T08:28:55;101056.03;;;11.22;71.49
19286;BME280;9776;50.798;6.430;2023-04-08T08:31:22;101052.00;;;11.37;70.81
19286;BME280;9776;50.798;6.430;2023-04-08T08:33:50;101058.59;;;11.62;70.23
19286;BME280;9776;50.798;6.430;2023-04-08T08:36:16;101052.34;;;11.92;69.42
19286;BME280;9776;50.798;6.430;2023-04-08T08:38:43;101054.84;;;12.69;67.78
19286;BME280;9776;50.798;6.430;2023-04-08T08:41:10;101058.28;;;13.06;66.40
19286;BME280;9776;50.798;6.430;2023-04-08T08:43:37;101054.41;;;13.00;66.56
19286;BME280;9776;50.798;6.430;2023-04-08T08:46:06;101059.78;;;12.81;66.73
19286;BME280;9776;50.798;6.430;2023-04-08T08:48:35;101059.47;;;12.94;66.75
19286;BME280;9776;50.798;6.430;2023-04-08T08:51:08;101055.16;;;13.47;65.18
19286;BME280;9776;50.798;6.430;2023-04-08T08:53:35;101055.06;;;13.75;64.39
19286;BME280;9776;50.798;6.430;2023-04-08T08:56:02;101045.00;;;13.60;64.62
19286;BME280;9776;50.798;6.430;2023-04-08T08:58:28;101052.50;;;13.47;64.71
19286;BME280;9776;50.798;6.430;2023-04-08T09:00:55;101061.88;;;13.59;64.49
19286;BME280;9776;50.798;6.430;2023-04-08T09:03:23;101062.66;;;14.05;63.50
19286;BME280;9776;50.798;6.430;2023-04-08T09:05:52;101062.78;;;14.72;60.98
19286;BME280;9776;50.798;6.430;2023-04-08T09:08:25;101068.69;;;15.42;59.38
19286;BME280;9776;50.798;6.430;2023-04-08T09:10:52;101061.69;;;16.86;55.56
19286;BME280;9776;50.798;6.430;2023-04-08T09:13:21;101062.72;;;18.38;51.93
19286;BME280;9776;50.798;6.430;2023-04-08T09:16:01;101065.59;;;19.60;48.59
19286;BME280;9776;50.798;6.430;2023-04-08T09:18:29;101066.94;;;19.49;48.71
19286;BME280;9776;50.798;6.430;2023-04-08T09:20:57;101066.09;;;20.12;47.17
19286;BME280;9776;50.798;6.430;2023-04-08T09:23:36;101072.03;;;19.44;47.63
19286;BME280;9776;50.798;6.430;2023-04-08T09:26:06;101070.69;;;18.60;49.09
19286;BME280;9776;50.798;6.430;2023-04-08T09:28:36;101073.69;;;18.43;49.24
19286;BME280;9776;50.798;6.430;2023-04-08T09:31:20;101067.94;;;18.68;48.01
19286;BME280;9776;50.798;6.430;2023-04-08T09:33:48;101064.00;;;19.87;45.53
19286;BME280;9776;50.798;6.430;2023-04-08T09:36:14;101072.59;;;20.24;44.77
19286;BME280;9776;50.798;6.430;2023-04-08T09:38:45;101065.34;;;20.74;43.03
19286;BME280;9776;50.798;6.430;2023-04-08T09:41:13;101070.72;;;20.46;43.06
19286;BME280;9776;50.798;6.430;2023-04-08T09:43:42;101069.69;;;21.16;41.89
19286;BME280;9776;50.798;6.430;2023-04-08T09:46:13;101069.91;;;20.24;43.31
19286;BME280;9776;50.798;6.430;2023-04-08T09:48:46;101071.81;;;18.95;45.61
19286;BME280;9776;50.798;6.430;2023-04-08T09:51:15;101071.41;;;19.27;44.83
19286;BME280;9776;50.798;6.430;2023-04-08T09:53:46;101065.34;;;19.97;43.35
19286;BME280;9776;50.798;6.430;2023-04-08T09:56:14;101065.47;;;20.31;42.71
19286;BME280;9776;50.798;6.430;2023-04-08T09:58:50;101072.72;;;20.37;42.50
19286;BME280;9776;50.798;6.430;2023-04-08T10:01:27;101067.88;;;20.26;42.66
19286;BME280;9776;50.798;6.430;2023-04-08T10:03:57;101073.66;;;19.45;43.64
19286;BME280;9776;50.798;6.430;2023-04-08T10:06:27;101063.88;;;18.58;45.36
19286;BME280;9776;50.798;6.430;2023-04-08T10:08:57;101069.34;;;18.42;45.63
19286;BME280;9776;50.798;6.430;2023-04-08T10:11:24;101068.28;;;18.51;45.20
19286;BME280;9776;50.798;6.430;2023-04-08T10:13:51;101063.91;;;18.35;45.51
19286;BME280;9776;50.798;6.430;2023-04-08T10:16:21;101061.50;;;18.26;45.50
19286;BME280;9776;50.798;6.430;2023-04-08T10:18:49;101062.19;;;18.57;44.89
19286;BME280;9776;50.798;6.430;2023-04-08T10:21:33;101063.28;;;18.48;44.20
19286;BME280;9776;50.798;6.430;2023-04-08T10:24:01;101066.03;;;18.40;44.32
19286;BME280;9776;50.798;6.430;2023-04-08T10:26:41;101061.38;;;18.56;43.45
19286;BME280;9776;50.798;6.430;2023-04-08T10:29:30;101063.31;;;18.25;44.72
19286;BME280;9776;50.798;6.430;2023-04-08T10:31:57;101069.59;;;17.72;45.74
19286;BME280;9776;50.798;6.430;2023-04-08T10:34:25;101055.25;;;17.12;46.93
19286;BME280;9776;50.798;6.430;2023-04-08T10:36:53;101061.31;;;16.97;47.44
19286;BME280;9776;50.798;6.430;2023-04-08T10:39:23;101066.53;;;17.22;46.79
19286;BME280;9776;50.798;6.430;2023-04-08T10:41:51;101059.50;;;17.29;46.57
19286;BME280;9776;50.798;6.430;2023-04-08T10:44:18;101052.25;;;17.37;46.20
19286;BME280;9776;50.798;6.430;2023-04-08T10:46:45;101050.03;;;17.80;45.15
19286;BME280;9776;50.798;6.430;2023-04-08T10:49:13;101051.16;;;18.23;43.86
19286;BME280;9776;50.798;6.430;2023-04-08T10:51:41;101049.25;;;18.46;43.26
19286;BME280;9776;50.798;6.430;2023-04-08T10:54:10;101052.53;;;18.70;42.65
19286;BME280;9776;50.798;6.430;2023-04-08T10:56:44;101048.66;;;18.58;42.82
19286;BME280;9776;50.798;6.430;2023-04-08T10:59:12;101046.13;;;18.05;43.71
19286;BME280;9776;50.798;6.430;2023-04-08T11:01:42;101045.03;;;17.54;44.64
19286;BME280;9776;50.798;6.430;2023-04-08T11:04:13;101046.34;;;17.50;44.73
19286;BME280;9776;50.798;6.430;2023-04-08T11:06:41;101044.00;;;17.78;43.81
19286;BME280;9776;50.798;6.430;2023-04-08T11:09:08;101047.50;;;18.01;43.72
19286;BME280;9776;50.798;6.430;2023-04-08T11:11:35;101044.38;;;17.97;43.58
19286;BME280;9776;50.798;6.430;2023-04-08T11:14:03;101040.06;;;17.74;44.23
19286;BME280;9776;50.798;6.430;2023-04-08T11:16:30;101045.28;;;17.67;44.12
19286;BME280;9776;50.798;6.430;2023-04-08T11:18:58;101042.78;;;17.88;43.54
19286;BME280;9776;50.798;6.430;2023-04-08T11:21:25;101036.31;;;18.20;42.97
19286;BME280;9776;50.798;6.430;2023-04-08T11:23:54;101044.84;;;18.38;42.28
19286;BME280;9776;50.798;6.430;2023-04-08T11:26:21;101040.91;;;18.49;42.13
19286;BME280;9776;50.798;6.430;2023-04-08T11:28:49;101047.16;;;18.85;41.30
19286;BME280;9776;50.798;6.430;2023-04-08T11:31:18;101045.19;;;19.23;40.58
19286;BME280;9776;50.798;6.430;2023-04-08T11:33:46;101048.25;;;19.56;39.72
19286;BME280;9776;50.798;6.430;2023-04-08T11:36:14;101045.22;;;19.59;39.51
19286;BME280;9776;50.798;6.430;2023-04-08T11:38:42;101035.25;;;19.95;38.63
19286;BME280;9776;50.798;6.430;2023-04-08T11:41:09;101039.13;;;20.42;37.79
19286;BME280;9776;50.798;6.430;2023-04-08T11:43:36;101039.13;;;20.76;37.21
19286;BME280;9776;50.798;6.430;2023-04-08T11:46:08;101035.69;;;21.29;36.15
19286;BME280;9776;50.798;6.430;2023-04-08T11:48:38;101037.84;;;21.73;35.33
19286;BME280;9776;50.798;6.430;2023-04-08T11:51:06;101035.22;;;22.19;34.77
19286;BME280;9776;50.798;6.430;2023-04-08T11:53:34;101032.66;;;22.57;34.21
19286;BME280;9776;50.798;6.430;2023-04-08T11:56:15;101043.63;;;23.64;32.52
19286;BME280;9776;50.798;6.430;2023-04-08T11:58:42;101026.63;;;23.95;31.74
19286;BME280;9776;50.798;6.430;2023-04-08T12:01:08;101039.94;;;24.39;30.98
19286;BME280;9776;50.798;6.430;2023-04-08T12:03:35;101032.78;;;24.02;31.60
19286;BME280;9776;50.798;6.430;2023-04-08T12:06:03;101039.13;;;23.20;32.69
19286;BME280;9776;50.798;6.430;2023-04-08T12:08:31;101040.94;;;22.55;33.84
19286;BME280;9776;50.798;6.430;2023-04-08T12:10:58;101043.88;;;22.47;33.93
19286;BME280;9776;50.798;6.430;2023-04-08T12:13:25;101045.34;;;22.24;34.27
19286;BME280;9776;50.798;6.430;2023-04-08T12:15:52;101035.78;;;21.69;34.94
19286;BME280;9776;50.798;6.430;2023-04-08T12:18:19;101032.88;;;21.03;35.71
19286;BME280;9776;50.798;6.430;2023-04-08T12:20:45;101030.94;;;20.22;37.19
19286;BME280;9776;50.798;6.430;2023-04-08T12:23:13;101029.81;;;19.89;37.79
19286;BME280;9776;50.798;6.430;2023-04-08T12:25:40;101027.13;;;19.46;38.67
19286;BME280;9776;50.798;6.430;2023-04-08T12:28:07;101038.88;;;18.80;40.08
19286;BME280;9776;50.798;6.430;2023-04-08T12:30:35;101032.72;;;18.28;40.74
19286;BME280;9776;50.798;6.430;2023-04-08T12:33:02;101044.97;;;17.62;42.00
19286;BME280;9776;50.798;6.430;2023-04-08T12:35:29;101033.31;;;17.63;41.81
19286;BME280;9776;50.798;6.430;2023-04-08T12:37:56;101023.59;;;17.85;41.38
19286;BME280;9776;50.798;6.430;2023-04-08T12:40:24;101028.19;;;18.51;40.22
19286;BME280;9776;50.798;6.430;2023-04-08T12:42:51;101027.94;;;19.83;38.32
19286;BME280;9776;50.798;6.430;2023-04-08T12:45:18;101033.94;;;22.41;34.17
19286;BME280;9776;50.798;6.430;2023-04-08T12:47:44;101029.41;;;23.82;31.99
19286;BME280;9776;50.798;6.430;2023-04-08T12:50:11;101036.75;;;23.75;31.80
19286;BME280;9776;50.798;6.430;2023-04-08T12:52:39;101034.47;;;23.40;31.92
19286;BME280;9776;50.798;6.430;2023-04-08T12:55:06;101033.59;;;23.02;32.44
19286;BME280;9776;50.798;6.430;2023-04-08T12:57:34;101027.78;;;22.01;33.75
19286;BME280;9776;50.798;6.430;2023-04-08T13:00:01;101031.63;;;21.66;34.09
19286;BME280;9776;50.798;6.430;2023-04-08T13:02:28;101026.63;;;21.43;34.59
19286;BME280;9776;50.798;6.430;2023-04-08T13:04:55;101033.56;;;21.18;34.64
19286;BME280;9776;50.798;6.430;2023-04-08T13:07:21;101031.16;;;20.89;34.90